Time;durP1;ratioP1;P1;durP2;ratioP2;P2;SDS_P1;SDS_P2;PMS_P1;PMS_P2;Temp;Humidity;BMP_temperature;BMP_pressure;BME280_temperature;BME280_humidity;BME280_pressure;Samples;Min_cycle;Max_cycle;Signal;HPM_P1;HPM_P2
2021/07/24 00:01:58;;;;;;;17.15;11.65;;;14.90;99.90;;;;;;5116544;28;20057;-81
2021/07/24 00:04:26;;;;;;;18.20;11.23;;;14.90;99.90;;;;;;5116193;28;20047;-82
2021/07/24 00:06:52;;;;;;;19.40;11.20;;;14.90;99.90;;;;;;5150069;28;20035;-81
2021/07/24 00:09:19;;;;;;;17.95;11.95;;;14.80;99.90;;;;;;5150005;28;20494;-81
2021/07/24 00:11:46;;;;;;;17.00;10.77;;;14.80;99.90;;;;;;5149181;28;20062;-82
2021/07/24 00:14:13;;;;;;;23.77;12.25;;;14.70;99.90;;;;;;5132722;28;20039;-81
2021/07/24 00:16:40;;;;;;;17.67;10.88;;;14.70;99.90;;;;;;5115810;28;20031;-81
2021/07/24 00:19:06;;;;;;;20.83;11.50;;;14.70;99.90;;;;;;5149700;28;20565;-81
2021/07/24 00:21:33;;;;;;;19.20;12.05;;;14.70;99.90;;;;;;5115612;28;20043;-81
2021/07/24 00:24:00;;;;;;;20.52;11.25;;;14.70;99.90;;;;;;5115946;28;20031;-81
2021/07/24 00:26:27;;;;;;;16.83;12.02;;;14.70;99.90;;;;;;5132197;28;20100;-82
2021/07/24 00:28:54;;;;;;;20.88;12.35;;;14.60;99.90;;;;;;5132427;28;20043;-81
2021/07/24 00:31:21;;;;;;;18.13;11.15;;;14.60;99.90;;;;;;5132433;28;20100;-81
2021/07/24 00:33:47;;;;;;;21.45;12.60;;;14.60;99.90;;;;;;5115189;28;20048;-81
2021/07/24 00:36:14;;;;;;;19.45;12.00;;;14.60;99.90;;;;;;5149529;28;20031;-80
2021/07/24 00:38:41;;;;;;;18.65;12.23;;;14.50;99.90;;;;;;5148933;28;20035;-81
2021/07/24 00:41:31;;;;;;;20.63;12.25;;;14.50;99.90;;;;;;5115569;28;20484;-81
2021/07/24 00:44:02;;;;;;;19.30;12.15;;;14.50;99.90;;;;;;5149366;28;20039;-81
2021/07/24 00:46:33;;;;;;;19.42;12.60;;;14.40;99.90;;;;;;5132681;28;20104;-81
2021/07/24 00:49:01;;;;;;;19.58;11.55;;;14.40;99.90;;;;;;5132802;28;20039;-81
2021/07/24 00:51:32;;;;;;;20.95;11.85;;;14.40;99.90;;;;;;5115700;28;20476;-80
2021/07/24 00:54:01;;;;;;;20.42;11.55;;;14.30;99.90;;;;;;5132273;28;20372;-81
2021/07/24 00:56:28;;;;;;;17.17;11.98;;;14.30;99.90;;;;;;5149081;28;20074;-81
2021/07/24 00:58:56;;;;;;;20.52;12.52;;;14.30;99.90;;;;;;5131757;28;20035;-82
2021/07/24 01:01:24;;;;;;;21.42;12.25;;;14.30;99.90;;;;;;5148780;28;20028;-81
2021/07/24 01:03:51;;;;;;;20.55;12.52;;;14.30;99.90;;;;;;5148227;28;20049;-81
2021/07/24 01:06:19;;;;;;;20.35;13.10;;;14.30;99.90;;;;;;5132253;28;20468;-82
2021/07/24 01:08:48;;;;;;;21.33;12.50;;;14.20;99.90;;;;;;5131783;28;20050;-82
2021/07/24 01:11:15;;;;;;;20.85;12.10;;;14.30;99.90;;;;;;5131753;28;20031;-81
2021/07/24 01:13:42;;;;;;;22.00;12.35;;;14.20;99.90;;;;;;5131344;28;20040;-81
2021/07/24 01:16:10;;;;;;;21.38;12.60;;;14.30;99.90;;;;;;5131726;28;20126;-81
2021/07/24 01:18:37;;;;;;;22.48;13.50;;;14.20;99.90;;;;;;5131717;28;20034;-81
2021/07/24 01:21:09;;;;;;;20.83;12.98;;;14.20;99.90;;;;;;5114999;28;20036;-81
2021/07/24 01:23:37;;;;;;;19.67;12.68;;;14.20;99.90;;;;;;5149323;28;20114;-81
2021/07/24 01:26:05;;;;;;;20.17;13.05;;;14.20;99.90;;;;;;5148497;28;20441;-81
2021/07/24 01:28:34;;;;;;;22.65;13.30;;;14.10;99.90;;;;;;5148502;28;20395;-81
2021/07/24 01:31:04;;;;;;;22.40;12.85;;;14.20;99.90;;;;;;5148399;28;20063;-81
2021/07/24 01:33:32;;;;;;;21.40;12.73;;;14.10;99.90;;;;;;5149448;28;20062;-80
2021/07/24 01:35:59;;;;;;;21.52;12.57;;;14.10;99.90;;;;;;5147717;28;20067;-81
2021/07/24 01:38:28;;;;;;;23.05;13.45;;;14.10;99.90;;;;;;5114553;28;20063;-81
2021/07/24 01:40:55;;;;;;;22.27;13.20;;;14.10;99.90;;;;;;5131030;28;20051;-81
2021/07/24 01:43:22;;;;;;;18.63;12.00;;;14.10;99.90;;;;;;5130832;28;20043;-82
2021/07/24 01:45:49;;;;;;;18.98;11.85;;;14.00;99.90;;;;;;5114180;28;20043;-81
2021/07/24 01:48:18;;;;;;;20.40;12.43;;;14.10;99.90;;;;;;5114176;28;20032;-82
2021/07/24 01:53:32;;;;;;;20.90;12.02;;;14.00;99.90;;;;;;5148819;28;20156;-81
2021/07/24 01:56:06;;;;;;;22.00;13.00;;;14.00;99.90;;;;;;5130235;28;20407;-81
2021/07/24 01:58:35;;;;;;;24.38;12.38;;;14.00;99.90;;;;;;5149041;28;20119;-81
2021/07/24 02:01:04;;;;;;;20.73;12.55;;;14.00;99.90;;;;;;5147562;28;20044;-81
2021/07/24 02:03:35;;;;;;;22.83;12.73;;;14.00;99.90;;;;;;5147803;28;20032;-81
2021/07/24 02:06:03;;;;;;;18.35;11.90;;;13.90;99.90;;;;;;5147527;28;20039;-82
2021/07/24 02:08:34;;;;;;;19.10;11.95;;;13.90;99.90;;;;;;5131107;28;20097;-81
2021/07/24 02:11:02;;;;;;;19.52;12.30;;;13.90;99.90;;;;;;5147430;28;20559;-82
2021/07/24 02:13:29;;;;;;;19.75;11.65;;;13.90;99.90;;;;;;5130982;28;20039;-81
2021/07/24 02:15:56;;;;;;;18.48;11.38;;;13.80;99.90;;;;;;5113577;28;20445;-81
2021/07/24 02:18:24;;;;;;;23.35;12.10;;;13.80;99.90;;;;;;5147597;28;20036;-81
2021/07/24 02:20:52;;;;;;;20.00;11.57;;;13.80;99.90;;;;;;5129992;28;20067;-82
2021/07/24 02:23:20;;;;;;;20.38;12.27;;;13.80;99.90;;;;;;5147509;28;20031;-81
2021/07/24 02:25:47;;;;;;;24.25;12.02;;;13.80;99.90;;;;;;5147115;28;20035;-81
2021/07/24 02:28:13;;;;;;;20.50;11.57;;;13.80;99.90;;;;;;5130819;28;20377;-81
2021/07/24 02:30:40;;;;;;;18.65;12.10;;;13.80;99.90;;;;;;5147223;28;20031;-82
2021/07/24 02:33:07;;;;;;;19.58;12.32;;;13.90;99.90;;;;;;5113788;28;20043;-81
2021/07/24 02:35:34;;;;;;;22.45;12.38;;;13.90;99.90;;;;;;5113697;28;20058;-81
2021/07/24 02:38:02;;;;;;;19.00;12.23;;;13.80;99.90;;;;;;5130004;28;20127;-82
2021/07/24 02:40:29;;;;;;;19.95;12.15;;;13.80;99.90;;;;;;5147066;28;20047;-80
2021/07/24 02:42:56;;;;;;;23.45;12.75;;;13.70;99.90;;;;;;5146723;28;20035;-81
2021/07/24 02:45:23;;;;;;;20.35;12.38;;;13.70;99.90;;;;;;5130377;28;20536;-81
2021/07/24 02:47:50;;;;;;;19.40;12.88;;;13.60;99.90;;;;;;5129857;28;20046;-82
2021/07/24 02:50:17;;;;;;;24.77;13.40;;;13.70;99.90;;;;;;5147262;28;20528;-81
2021/07/24 02:52:44;;;;;;;20.60;12.57;;;13.60;99.90;;;;;;5113016;28;20092;-82
2021/07/24 02:55:11;;;;;;;25.80;13.05;;;13.60;99.90;;;;;;5133290;28;20036;-81
2021/07/24 02:57:38;;;;;;;21.38;12.88;;;13.60;99.90;;;;;;5151501;28;20027;-82
2021/07/24 03:00:06;;;;;;;23.55;12.50;;;13.50;99.90;;;;;;5134027;28;20050;-81
2021/07/24 03:02:33;;;;;;;23.70;13.00;;;13.50;99.90;;;;;;5134649;28;20044;-81
2021/07/24 03:05:00;;;;;;;23.00;12.73;;;13.50;99.90;;;;;;5133937;28;20035;-82
2021/07/24 03:07:26;;;;;;;22.63;12.60;;;13.40;99.90;;;;;;5117859;28;20039;-81
2021/07/24 03:09:54;;;;;;;24.33;13.80;;;13.40;99.90;;;;;;5133730;28;20039;-81
2021/07/24 03:12:21;;;;;;;24.67;13.77;;;13.40;99.90;;;;;;5134071;28;20490;-81
2021/07/24 03:14:48;;;;;;;24.63;14.13;;;13.40;99.90;;;;;;5116789;28;20046;-81
2021/07/24 03:17:15;;;;;;;24.80;14.13;;;13.40;99.90;;;;;;5134074;28;20459;-81
2021/07/24 03:19:41;;;;;;;20.65;13.00;;;13.40;99.90;;;;;;5117115;28;20055;-81
2021/07/24 03:22:08;;;;;;;26.60;13.77;;;13.40;99.90;;;;;;5099230;28;20058;-81
2021/07/24 03:24:35;;;;;;;24.10;13.40;;;13.40;99.90;;;;;;5150087;28;20028;-81
2021/07/24 03:27:02;;;;;;;23.23;13.98;;;13.40;99.90;;;;;;5132654;28;20059;-82
2021/07/24 03:29:29;;;;;;;26.90;14.43;;;13.40;99.90;;;;;;5133288;28;20440;-82
2021/07/24 03:31:56;;;;;;;25.60;14.00;;;13.40;99.90;;;;;;5132593;28;20031;-82
2021/07/24 03:34:23;;;;;;;25.17;13.57;;;13.40;99.90;;;;;;5133584;28;20074;-81
2021/07/24 03:36:50;;;;;;;22.13;13.35;;;13.40;99.90;;;;;;5116046;28;20036;-81
2021/07/24 03:39:17;;;;;;;24.73;13.70;;;13.40;99.90;;;;;;5116390;28;20054;-81
2021/07/24 03:41:44;;;;;;;26.80;14.75;;;13.40;99.90;;;;;;5133122;28;20480;-81
2021/07/24 03:44:11;;;;;;;26.48;13.43;;;13.40;99.90;;;;;;5150160;28;20040;-81
2021/07/24 03:46:38;;;;;;;24.35;13.82;;;13.40;99.90;;;;;;5133775;28;20043;-81
2021/07/24 03:49:05;;;;;;;26.75;13.30;;;13.50;99.90;;;;;;5149998;28;20119;-81
2021/07/24 03:51:31;;;;;;;25.20;14.20;;;13.50;99.90;;;;;;5116783;28;20039;-81
2021/07/24 03:53:58;;;;;;;26.52;14.55;;;13.50;99.90;;;;;;5116090;28;20106;-81
2021/07/24 03:56:25;;;;;;;22.17;12.75;;;13.50;99.90;;;;;;5133392;28;20124;-81
2021/07/24 03:58:53;;;;;;;24.77;13.63;;;13.50;99.90;;;;;;5116253;28;20118;-81
2021/07/24 04:01:22;;;;;;;25.50;14.35;;;13.50;99.90;;;;;;5116620;28;20036;-81
2021/07/24 04:03:49;;;;;;;26.33;13.63;;;13.50;99.90;;;;;;5150050;28;20096;-81
2021/07/24 04:06:21;;;;;;;22.20;12.43;;;13.60;99.90;;;;;;5115349;28;20044;-81
2021/07/24 04:08:49;;;;;;;22.67;13.43;;;13.60;99.90;;;;;;5150244;28;20065;-82
2021/07/24 04:11:19;;;;;;;22.15;13.30;;;13.60;99.90;;;;;;5149810;28;20039;-81
2021/07/24 04:13:47;;;;;;;24.40;13.75;;;13.60;99.90;;;;;;5149994;28;20044;-82
2021/07/24 04:16:14;;;;;;;23.45;13.82;;;13.60;99.90;;;;;;5150846;28;20028;-82
2021/07/24 04:18:42;;;;;;;23.13;13.00;;;13.60;99.90;;;;;;5133312;28;20040;-81
2021/07/24 04:21:09;;;;;;;23.65;13.00;;;13.70;99.90;;;;;;5149424;28;20070;-82
2021/07/24 04:23:36;;;;;;;21.90;12.90;;;13.70;99.90;;;;;;5151243;28;20069;-82
2021/07/24 04:26:03;;;;;;;21.85;13.20;;;13.70;99.90;;;;;;5132477;28;20118;-81
2021/07/24 04:28:30;;;;;;;22.92;13.20;;;13.70;99.90;;;;;;5132784;28;20115;-81
2021/07/24 04:30:56;;;;;;;22.65;13.02;;;13.70;99.90;;;;;;5115545;28;20039;-81
2021/07/24 04:33:23;;;;;;;24.67;13.10;;;13.80;99.90;;;;;;5115798;28;20046;-81
2021/07/24 04:35:50;;;;;;;22.35;12.85;;;13.80;99.90;;;;;;5115649;28;20032;-81
2021/07/24 04:38:17;;;;;;;19.92;12.70;;;13.80;99.90;;;;;;5115284;28;20043;-81
2021/07/24 04:40:46;;;;;;;22.08;12.93;;;13.80;99.90;;;;;;5149132;28;20043;-81
2021/07/24 04:43:13;;;;;;;23.80;13.50;;;13.80;99.90;;;;;;5115332;28;20040;-81
2021/07/24 04:45:43;;;;;;;23.13;13.50;;;13.80;99.90;;;;;;5115584;28;20392;-81
2021/07/24 04:48:11;;;;;;;21.55;12.98;;;13.90;99.90;;;;;;5148723;28;20468;-81
2021/07/24 04:50:43;;;;;;;21.58;12.90;;;13.90;99.90;;;;;;5132367;28;20372;-81
2021/07/24 04:53:12;;;;;;;25.00;13.80;;;13.90;99.90;;;;;;5150025;28;20043;-82
2021/07/24 04:55:39;;;;;;;21.65;13.02;;;13.90;99.90;;;;;;5132172;28;20028;-82
2021/07/24 04:58:08;;;;;;;24.30;13.57;;;14.00;99.90;;;;;;5148791;28;20032;-82
2021/07/24 05:00:42;;;;;;;22.30;13.35;;;14.00;99.90;;;;;;5115564;28;20404;-82
2021/07/24 05:03:12;;;;;;;22.42;12.95;;;14.00;99.90;;;;;;5148631;28;20105;-81
2021/07/24 05:05:40;;;;;;;23.33;13.48;;;14.10;99.90;;;;;;5132228;28;20456;-81
2021/07/24 05:08:08;;;;;;;22.85;12.93;;;14.10;99.90;;;;;;5131685;28;20031;-82
2021/07/24 05:10:35;;;;;;;21.00;12.52;;;14.10;99.90;;;;;;5132023;28;20035;-81
2021/07/24 05:13:03;;;;;;;19.85;12.52;;;14.20;99.90;;;;;;5148427;28;20049;-82
2021/07/24 05:15:30;;;;;;;24.50;12.70;;;14.20;99.90;;;;;;5131967;28;20085;-81
2021/07/24 05:17:57;;;;;;;27.85;13.25;;;14.20;99.90;;;;;;5147852;28;20039;-81
2021/07/24 05:20:29;;;;;;;24.73;13.00;;;14.30;99.90;;;;;;5114802;28;20036;-81
2021/07/24 05:22:57;;;;;;;22.05;12.93;;;14.30;99.90;;;;;;5116634;28;20039;-82
2021/07/24 05:25:23;;;;;;;19.35;12.10;;;14.40;99.90;;;;;;5148300;28;20106;-81
2021/07/24 05:27:52;;;;;;;20.77;12.68;;;14.50;99.90;;;;;;5131794;28;20467;-82
2021/07/24 05:30:18;;;;;;;19.80;11.93;;;14.50;99.90;;;;;;5148149;28;20071;-81
2021/07/24 05:32:45;;;;;;;21.35;11.93;;;14.60;99.90;;;;;;5131507;28;20045;-82
2021/07/24 05:35:12;;;;;;;21.98;12.50;;;14.60;99.90;;;;;;5147751;28;20433;-82
2021/07/24 05:37:39;;;;;;;18.67;12.23;;;14.70;99.90;;;;;;5114386;28;20036;-81
2021/07/24 05:40:06;;;;;;;21.17;11.95;;;14.80;99.90;;;;;;5130841;28;20051;-82
2021/07/24 05:42:33;;;;;;;19.73;11.98;;;14.80;99.90;;;;;;5114602;28;20119;-81
2021/07/24 05:45:00;;;;;;;17.10;11.30;;;14.80;99.90;;;;;;5131400;28;20047;-82
2021/07/24 05:47:31;;;;;;;21.92;11.27;;;14.90;99.90;;;;;;5148617;28;20047;-82
2021/07/24 05:49:59;;;;;;;18.90;11.73;;;15.00;99.90;;;;;;5131461;28;20066;-82
2021/07/24 05:52:26;;;;;;;20.25;11.07;;;15.00;99.90;;;;;;5147600;28;20039;-82
2021/07/24 05:54:53;;;;;;;19.40;11.27;;;15.10;99.90;;;;;;5131135;28;20036;-82
2021/07/24 05:57:20;;;;;;;22.50;11.32;;;15.20;99.90;;;;;;5130530;28;20114;-82
2021/07/24 05:59:47;;;;;;;16.75;10.63;;;15.30;99.90;;;;;;5149239;28;20399;-81
2021/07/24 06:02:15;;;;;;;19.55;12.00;;;15.30;99.90;;;;;;5130498;28;20050;-82
2021/07/24 06:04:44;;;;;;;17.95;10.93;;;15.40;99.90;;;;;;5131135;28;20399;-82
2021/07/24 06:07:12;;;;;;;20.15;11.13;;;15.50;99.90;;;;;;5114762;28;20039;-82
2021/07/24 06:09:39;;;;;;;16.70;10.82;;;15.60;99.90;;;;;;5114221;28;20064;-82
2021/07/24 06:12:07;;;;;;;15.55;10.30;;;15.70;99.90;;;;;;5130272;28;20085;-82
2021/07/24 06:14:35;;;;;;;18.33;10.82;;;15.70;99.90;;;;;;5131025;28;20035;-81
2021/07/24 06:17:03;;;;;;;18.27;10.70;;;15.80;99.90;;;;;;5147533;28;20400;-81
2021/07/24 06:19:30;;;;;;;14.80;10.32;;;15.90;99.90;;;;;;5147433;28;20540;-81
2021/07/24 06:21:59;;;;;;;16.48;9.82;;;15.90;99.90;;;;;;5147609;28;20114;-81
2021/07/24 06:24:26;;;;;;;17.08;10.68;;;16.00;99.90;;;;;;5130548;28;20027;-81
2021/07/24 06:26:53;;;;;;;18.05;10.70;;;16.10;99.90;;;;;;5114054;28;20046;-81
2021/07/24 06:29:19;;;;;;;18.58;10.32;;;16.20;99.90;;;;;;5129940;28;20036;-81
2021/07/24 06:31:46;;;;;;;14.75;10.43;;;16.20;99.90;;;;;;5130697;28;20059;-81
2021/07/24 06:34:13;;;;;;;18.45;11.13;;;16.30;99.90;;;;;;5113242;28;20040;-81
2021/07/24 06:36:40;;;;;;;16.95;10.48;;;16.50;99.90;;;;;;5147347;28;20090;-81
2021/07/24 06:39:07;;;;;;;16.08;9.65;;;16.50;99.90;;;;;;5147303;28;20040;-81
2021/07/24 06:41:34;;;;;;;16.73;10.30;;;16.60;99.90;;;;;;5147453;28;20126;-81
2021/07/24 06:44:04;;;;;;;14.50;9.48;;;16.70;99.90;;;;;;5114550;28;20119;-81
2021/07/24 06:46:30;;;;;;;14.75;10.07;;;16.90;99.90;;;;;;5147168;28;20553;-81
2021/07/24 06:48:59;;;;;;;16.40;11.07;;;17.00;99.90;;;;;;5130610;28;20043;-81
2021/07/24 06:51:29;;;;;;;14.32;9.77;;;17.10;99.90;;;;;;5130979;28;20031;-81
2021/07/24 06:53:56;;;;;;;15.40;9.90;;;17.20;99.90;;;;;;5130316;28;20038;-80
2021/07/24 06:56:23;;;;;;;15.30;10.18;;;17.20;99.90;;;;;;5129883;28;20529;-80
2021/07/24 06:58:49;;;;;;;15.02;9.35;;;17.30;99.90;;;;;;5130438;28;20040;-79
2021/07/24 07:01:16;;;;;;;15.13;9.45;;;17.40;99.90;;;;;;5146819;28;20467;-80
2021/07/24 07:03:43;;;;;;;15.00;9.00;;;17.50;99.90;;;;;;5130216;28;20044;-80
2021/07/24 07:06:13;;;;;;;14.70;9.55;;;17.70;99.90;;;;;;5146801;28;20032;-81
2021/07/24 07:08:40;;;;;;;13.55;8.57;;;17.70;99.90;;;;;;5147052;28;20031;-80
2021/07/24 07:11:07;;;;;;;11.95;8.75;;;17.90;99.90;;;;;;5130677;28;20066;-80
2021/07/24 07:13:36;;;;;;;13.02;9.02;;;18.00;99.90;;;;;;5146637;28;20039;-80
2021/07/24 07:16:05;;;;;;;15.57;8.35;;;18.10;99.90;;;;;;5130293;28;20040;-81
2021/07/24 07:18:32;;;;;;;13.32;8.23;;;18.20;99.90;;;;;;5146792;28;20035;-80
2021/07/24 07:20:59;;;;;;;14.10;8.15;;;18.30;99.90;;;;;;5130312;28;20453;-80
2021/07/24 07:23:26;;;;;;;11.25;8.10;;;18.40;99.90;;;;;;5129503;28;20077;-80
2021/07/24 07:25:53;;;;;;;15.10;8.45;;;18.50;99.90;;;;;;5129982;28;20042;-80
2021/07/24 07:28:20;;;;;;;12.10;8.07;;;18.60;99.90;;;;;;5129782;28;20038;-80
2021/07/24 07:30:47;;;;;;;10.82;7.70;;;18.70;99.90;;;;;;5146962;28;20063;-81
2021/07/24 07:33:15;;;;;;;11.07;7.45;;;18.80;99.90;;;;;;5129353;28;20488;-81
2021/07/24 07:35:42;;;;;;;12.65;7.82;;;18.90;99.90;;;;;;5147008;28;20044;-81
2021/07/24 07:38:09;;;;;;;10.85;7.10;;;19.00;99.90;;;;;;5130405;28;20373;-80
2021/07/24 07:40:38;;;;;;;13.80;7.50;;;19.10;99.90;;;;;;5129702;28;20077;-81
2021/07/24 07:43:06;;;;;;;11.63;7.63;;;19.20;99.90;;;;;;5133604;28;20051;-81
2021/07/24 07:45:33;;;;;;;12.57;7.70;;;19.30;99.90;;;;;;5133484;28;20059;-80
2021/07/24 07:47:59;;;;;;;10.45;7.03;;;19.40;99.90;;;;;;5133772;28;20035;-80
2021/07/24 07:50:26;;;;;;;11.95;7.35;;;19.50;99.90;;;;;;5133290;28;20040;-80
2021/07/24 07:52:53;;;;;;;9.43;6.90;;;19.60;99.90;;;;;;5133637;28;20088;-80
2021/07/24 07:55:20;;;;;;;11.30;6.90;;;19.80;99.90;;;;;;5132976;28;20035;-81
2021/07/24 07:57:47;;;;;;;9.80;6.85;;;19.90;99.90;;;;;;5133588;28;20045;-81
2021/07/24 08:00:14;;;;;;;10.80;6.75;;;20.00;99.90;;;;;;5133318;28;20112;-80
2021/07/24 08:02:41;;;;;;;11.75;6.55;;;20.00;99.90;;;;;;5133339;28;20123;-80
2021/07/24 08:05:08;;;;;;;11.75;6.63;;;20.10;99.90;;;;;;5133546;28;20038;-81
2021/07/24 08:07:35;;;;;;;9.20;6.25;;;20.20;99.90;;;;;;5116293;28;20043;-80
2021/07/24 08:10:02;;;;;;;10.80;6.55;;;20.30;99.90;;;;;;5133428;28;20036;-80
2021/07/24 08:12:29;;;;;;;10.85;6.20;;;20.30;99.90;;;;;;5132788;28;20040;-80
2021/07/24 08:14:56;;;;;;;10.32;6.82;;;20.40;99.90;;;;;;5133153;28;20118;-80
2021/07/24 08:17:24;;;;;;;9.93;6.47;;;20.60;99.90;;;;;;5132757;28;20040;-80
2021/07/24 08:19:50;;;;;;;10.07;6.53;;;20.70;99.90;;;;;;5133223;28;20031;-80
2021/07/24 08:22:17;;;;;;;9.23;6.20;;;20.80;99.90;;;;;;5149271;28;20056;-81
2021/07/24 08:24:44;;;;;;;13.65;6.45;;;20.90;99.90;;;;;;5132792;28;20119;-80
2021/07/24 08:27:11;;;;;;;8.93;5.63;;;20.90;99.90;;;;;;5133183;28;20035;-80
2021/07/24 08:29:38;;;;;;;9.60;6.13;;;21.10;99.90;;;;;;5132430;28;20046;-81
2021/07/24 08:32:08;;;;;;;8.40;5.95;;;21.20;99.90;;;;;;5132797;28;20035;-80
2021/07/24 08:34:36;;;;;;;8.50;6.00;;;21.20;99.90;;;;;;5132398;28;20055;-80
2021/07/24 08:37:03;;;;;;;10.15;6.38;;;21.30;99.90;;;;;;5132759;28;20040;-80
2021/07/24 08:39:30;;;;;;;10.85;5.78;;;21.40;99.90;;;;;;5149470;28;20027;-80
2021/07/24 08:41:56;;;;;;;9.00;5.35;;;21.60;99.90;;;;;;5132454;28;20101;-80
2021/07/24 08:44:23;;;;;;;9.25;6.15;;;21.70;99.90;;;;;;5132281;28;20035;-81
2021/07/24 08:46:50;;;;;;;9.00;5.30;;;21.70;99.90;;;;;;5132625;28;20088;-81
2021/07/24 08:49:17;;;;;;;9.50;5.15;;;21.80;99.90;;;;;;5149370;28;20039;-81
2021/07/24 08:51:47;;;;;;;10.32;5.63;;;21.90;99.90;;;;;;5148994;28;20032;-81
2021/07/24 08:54:14;;;;;;;10.10;5.60;;;22.00;99.90;;;;;;5132841;28;20502;-82
2021/07/24 08:56:47;;;;;;;7.80;5.15;;;22.00;99.90;;;;;;5131973;28;20119;-82
2021/07/24 08:59:18;;;;;;;9.23;5.80;;;22.10;99.90;;;;;;5133136;28;20145;-81
2021/07/24 09:01:53;;;;;;;7.90;5.30;;;22.30;99.90;;;;;;5131997;28;20043;-80
2021/07/24 09:04:22;;;;;;;10.20;5.85;;;22.30;99.90;;;;;;5149006;28;20044;-81
2021/07/24 09:06:53;;;;;;;10.65;6.10;;;22.30;99.90;;;;;;5148806;28;20042;-81
2021/07/24 09:09:20;;;;;;;9.70;6.03;;;22.40;99.90;;;;;;5148685;28;20036;-80
2021/07/24 09:11:47;;;;;;;8.38;5.78;;;22.50;99.90;;;;;;5131477;28;20043;-82
2021/07/24 09:14:14;;;;;;;8.68;5.68;;;22.60;99.90;;;;;;5132009;28;20039;-82
2021/07/24 09:16:42;;;;;;;10.45;5.88;;;22.70;99.90;;;;;;5131640;28;20054;-81
2021/07/24 09:19:11;;;;;;;8.65;5.78;;;22.80;99.90;;;;;;5148875;28;20395;-82
2021/07/24 09:21:38;;;;;;;10.05;6.30;;;22.80;99.90;;;;;;5131389;28;20472;-81
2021/07/24 09:24:22;;;;;;;12.68;6.00;;;23.00;99.90;;;;;;5132154;28;20035;-81
2021/07/24 09:26:49;;;;;;;11.02;5.93;;;23.10;99.90;;;;;;5148486;28;20096;-81
2021/07/24 09:29:18;;;;;;;10.63;5.60;;;23.10;99.90;;;;;;5131946;28;20114;-81
2021/07/24 09:31:46;;;;;;;10.40;5.55;;;23.20;99.90;;;;;;5149225;28;20043;-82
2021/07/24 09:34:15;;;;;;;11.82;5.82;;;23.30;99.90;;;;;;5148316;28;20043;-82
2021/07/24 09:36:44;;;;;;;9.50;5.07;;;23.40;99.90;;;;;;5131354;28;20035;-81
2021/07/24 09:39:16;;;;;;;10.45;5.32;;;23.50;99.90;;;;;;5148490;28;20043;-82
2021/07/24 09:41:45;;;;;;;11.20;5.43;;;23.50;99.90;;;;;;5130780;28;20127;-82
2021/07/24 09:44:27;;;;;;;11.57;5.80;;;23.70;99.90;;;;;;5149820;28;20035;-82
2021/07/24 09:46:55;;;;;;;9.63;5.38;;;23.70;99.90;;;;;;5148498;28;20111;-82
2021/07/24 09:49:37;;;;;;;7.93;5.30;;;23.70;99.90;;;;;;5149045;28;20042;-82
2021/07/24 09:52:11;;;;;;;9.57;5.22;;;23.70;99.90;;;;;;5131360;28;20039;-82
2021/07/24 09:54:39;;;;;;;10.75;5.63;;;23.70;99.90;;;;;;5131301;28;20076;-82
2021/07/24 09:57:06;;;;;;;9.13;5.88;;;23.70;99.90;;;;;;5148098;28;20036;-82
2021/07/24 09:59:34;;;;;;;12.55;5.00;;;23.80;99.90;;;;;;5130759;28;20452;-81
2021/07/24 10:02:02;;;;;;;7.60;5.45;;;23.90;99.90;;;;;;5148937;28;20066;-81
2021/07/24 10:04:40;;;;;;;9.35;5.45;;;23.90;99.90;;;;;;5129984;28;20073;-82
2021/07/24 10:07:08;;;;;;;9.25;5.15;;;24.00;99.90;;;;;;5147843;28;20044;-81
2021/07/24 10:09:37;;;;;;;8.10;4.80;;;24.10;99.90;;;;;;5147158;28;20077;-81
2021/07/24 10:12:08;;;;;;;9.50;4.80;;;24.20;99.90;;;;;;5147743;28;20031;-81
2021/07/24 10:14:39;;;;;;;11.20;5.65;;;24.30;99.90;;;;;;5130390;28;20035;-81
2021/07/24 10:17:06;;;;;;;7.90;5.32;;;24.30;99.90;;;;;;5147556;28;20434;-81
2021/07/24 10:19:34;;;;;;;9.23;5.30;;;24.40;99.90;;;;;;5130127;28;20369;-81
2021/07/24 10:22:02;;;;;;;12.45;5.55;;;24.30;99.90;;;;;;5130762;28;20041;-81
2021/07/24 10:24:29;;;;;;;8.57;5.10;;;24.30;99.90;;;;;;5148624;28;20484;-81
2021/07/24 10:27:11;;;;;;;7.63;4.80;;;24.20;99.90;;;;;;5130015;28;20071;-81
2021/07/24 10:30:03;;;;;;;7.75;5.05;;;24.30;99.90;;;;;;5146917;28;20039;-81
2021/07/24 10:32:34;;;;;;;10.18;4.63;;;24.40;99.90;;;;;;5147278;28;20050;-81
2021/07/24 10:35:02;;;;;;;9.35;5.40;;;24.50;99.90;;;;;;5147284;28;20399;-80
2021/07/24 10:37:34;;;;;;;8.73;5.22;;;24.50;99.90;;;;;;5130282;28;20471;-80
2021/07/24 10:40:32;;;;;;;10.13;5.35;;;24.50;99.90;;;;;;5148209;28;20032;-80
2021/07/24 10:43:03;;;;;;;9.13;5.07;;;24.60;99.90;;;;;;5113297;28;20051;-80
2021/07/24 10:45:32;;;;;;;8.98;5.50;;;24.60;99.90;;;;;;5130787;28;20059;-80
2021/07/24 10:48:15;;;;;;;8.73;5.25;;;24.70;99.90;;;;;;5148365;28;20059;-82
2021/07/24 10:50:54;;;;;;;8.40;5.43;;;24.80;99.90;;;;;;5146695;28;20035;-80
2021/07/24 10:53:22;;;;;;;9.55;5.10;;;24.90;99.90;;;;;;5147002;28;20112;-81
2021/07/24 10:55:51;;;;;;;12.23;6.15;;;24.90;99.90;;;;;;5129778;28;20463;-81
2021/07/24 10:58:19;;;;;;;9.70;4.90;;;24.60;99.90;;;;;;5147270;28;20028;-80
2021/07/24 11:00:55;;;;;;;10.88;5.65;;;24.60;99.90;;;;;;5113208;28;20065;-81
2021/07/24 11:03:35;;;;;;;8.32;5.22;;;24.60;99.90;;;;;;5147195;28;20048;-81
2021/07/24 11:06:22;;;;;;;17.23;5.97;;;24.60;99.90;;;;;;5146944;28;20060;-81
2021/07/24 11:09:17;;;;;;;9.05;5.40;;;24.50;99.90;;;;;;5146769;28;20043;-81
2021/07/24 11:11:46;;;;;;;8.73;5.75;;;24.40;99.90;;;;;;5146968;28;20559;-81
2021/07/24 11:14:38;;;;;;;8.95;5.38;;;24.40;99.90;;;;;;5130260;28;20092;-80
2021/07/24 11:17:05;;;;;;;11.40;6.22;;;24.50;99.90;;;;;;5150975;28;20040;-81
2021/07/24 11:19:36;;;;;;;8.63;5.82;;;24.50;99.90;;;;;;5151020;28;20042;-81
2021/07/24 11:22:24;;;;;;;10.18;6.13;;;24.40;99.90;;;;;;5134160;28;20431;-81
2021/07/24 11:24:50;;;;;;;10.02;6.00;;;24.50;99.90;;;;;;5133617;28;20031;-81
2021/07/24 11:27:29;;;;;;;10.23;6.05;;;24.60;99.90;;;;;;5150874;28;20036;-81
2021/07/24 11:30:05;;;;;;;10.00;5.95;;;24.70;99.90;;;;;;5150444;28;20106;-81
2021/07/24 11:32:44;;;;;;;17.58;6.40;;;25.00;99.90;;;;;;5150502;28;20063;-81
2021/07/24 11:35:15;;;;;;;12.18;5.75;;;25.20;99.90;;;;;;5151012;28;20136;-81
2021/07/24 11:37:51;;;;;;;9.10;5.53;;;25.30;99.90;;;;;;5133431;28;20040;-81
2021/07/24 11:40:29;;;;;;;11.60;6.00;;;25.60;99.90;;;;;;5150577;28;20400;-81
2021/07/24 11:42:58;;;;;;;8.68;5.43;;;25.80;99.90;;;;;;5150293;28;20492;-81
2021/07/24 11:45:29;;;;;;;10.82;6.20;;;26.00;99.90;;;;;;5151944;28;20032;-81
2021/07/24 11:48:13;;;;;;;9.10;6.25;;;26.10;99.90;;;;;;5133256;28;20035;-81
2021/07/24 11:50:40;;;;;;;9.60;6.07;;;26.00;99.90;;;;;;5150396;28;20040;-81
2021/07/24 11:53:07;;;;;;;8.85;6.20;;;25.90;99.90;;;;;;5150280;28;20509;-81
2021/07/24 11:55:35;;;;;;;9.00;5.57;;;25.80;99.90;;;;;;5133642;28;20039;-82
2021/07/24 11:58:06;;;;;;;12.77;5.95;;;25.80;99.90;;;;;;5133381;28;20361;-81
2021/07/24 12:00:39;;;;;;;11.05;6.28;;;25.70;99.90;;;;;;5151507;27;20035;-80
2021/07/24 12:03:16;;;;;;;10.35;5.80;;;25.80;99.90;;;;;;5133030;28;20042;-81
2021/07/24 12:05:47;;;;;;;8.80;5.57;;;25.90;99.90;;;;;;5151231;28;20059;-82
2021/07/24 12:08:19;;;;;;;9.02;5.68;;;26.10;99.90;;;;;;5150246;28;20067;-81
2021/07/24 12:10:48;;;;;;;10.43;5.40;;;26.20;99.90;;;;;;5150934;28;20502;-81
2021/07/24 12:13:21;;;;;;;10.13;6.00;;;26.30;99.90;;;;;;5133282;28;20036;-80
2021/07/24 12:16:07;;;;;;;10.35;5.82;;;26.30;99.90;;;;;;5149713;28;20047;-82
2021/07/24 12:18:42;;;;;;;9.25;5.80;;;26.40;99.90;;;;;;5149813;28;20077;-82
2021/07/24 12:21:18;;;;;;;10.13;5.60;;;26.40;99.70;;;;;;5149933;28;20118;-81
2021/07/24 12:23:57;;;;;;;10.23;6.07;;;26.40;99.90;;;;;;5149445;28;20048;-82
2021/07/24 12:26:31;;;;;;;9.70;5.88;;;26.40;99.90;;;;;;5149432;28;20537;-82
2021/07/24 12:29:10;;;;;;;8.73;6.10;;;26.30;99.90;;;;;;5149626;28;20047;-82
2021/07/24 12:31:47;;;;;;;8.48;5.60;;;26.40;99.90;;;;;;5150078;28;20039;-81
2021/07/24 12:34:18;;;;;;;9.45;6.10;;;26.40;99.90;;;;;;5133195;28;20059;-81
2021/07/24 12:37:03;;;;;;;10.70;6.70;;;26.40;99.90;;;;;;5149881;28;20061;-82
2021/07/24 12:39:34;;;;;;;8.93;5.70;;;26.30;99.90;;;;;;5150913;28;20032;-81
2021/07/24 12:42:06;;;;;;;9.98;5.90;;;26.20;99.90;;;;;;5148988;28;20048;-81
2021/07/24 12:44:52;;;;;;;10.57;5.80;;;26.10;99.90;;;;;;5132667;28;20088;-81
2021/07/24 12:47:19;;;;;;;11.80;5.85;;;26.20;99.90;;;;;;5132794;28;20040;-81